createdAt,value
2023-04-26T00:00:03.685Z,99871.00
2023-04-26T00:02:32.537Z,99866.00
2023-04-26T00:04:59.856Z,99867.97
2023-04-26T00:07:26.951Z,99865.50
2023-04-26T00:09:54.641Z,99865.91
2023-04-26T00:12:21.843Z,99868.44
2023-04-26T00:14:48.988Z,99871.59
2023-04-26T00:17:17.238Z,99873.31
2023-04-26T00:19:44.234Z,99866.75
2023-04-26T00:22:11.394Z,99876.19
2023-04-26T00:24:38.440Z,99868.13
2023-04-26T00:27:27.712Z,99872.63
2023-04-26T00:29:55.603Z,99872.28
2023-04-26T00:32:24.914Z,99871.47
2023-04-26T00:34:51.957Z,99874.00
2023-04-26T00:37:18.853Z,99869.75
2023-04-26T00:39:45.844Z,99869.41
2023-04-26T00:42:12.871Z,99880.22
2023-04-26T00:44:40.052Z,99876.75
2023-04-26T00:47:07.223Z,99876.16
2023-04-26T00:49:36.100Z,99884.66
2023-04-26T00:52:03.082Z,99879.88
2023-04-26T00:54:29.976Z,99875.91
2023-04-26T00:56:58.002Z,99884.81
2023-04-26T00:59:26.701Z,99885.81
2023-04-26T01:01:53.717Z,99882.72
2023-04-26T01:04:21.037Z,99884.75
2023-04-26T01:06:49.901Z,99885.81
2023-04-26T01:09:18.618Z,99888.50
2023-04-26T01:11:52.043Z,99892.59
2023-04-26T01:14:19.691Z,99880.34
2023-04-26T01:16:47.222Z,99881.38
2023-04-26T01:19:14.370Z,99890.50
2023-04-26T01:21:41.670Z,99881.31
2023-04-26T01:24:13.099Z,99882.56
2023-04-26T01:26:40.777Z,99883.78
2023-04-26T01:29:17.027Z,99880.25
2023-04-26T01:31:45.117Z,99877.06
2023-04-26T01:34:12.292Z,99887.84
2023-04-26T01:36:39.736Z,99873.97
2023-04-26T01:39:06.818Z,99885.91
2023-04-26T01:41:35.282Z,99884.00
2023-04-26T01:44:02.571Z,99882.72
2023-04-26T01:46:31.498Z,99875.88
2023-04-26T01:48:58.562Z,99880.63
2023-04-26T01:51:26.036Z,99870.25
2023-04-26T01:53:53.339Z,99876.66
2023-04-26T01:56:24.083Z,99869.94
2023-04-26T01:58:52.800Z,99874.53
2023-04-26T02:02:36.584Z,99871.69
2023-04-26T02:05:11.794Z,99874.75
2023-04-26T02:07:58.000Z,99883.19
2023-04-26T02:10:31.560Z,99888.00
2023-04-26T02:12:58.434Z,99880.22
2023-04-26T02:15:29.657Z,99889.19
2023-04-26T02:17:56.700Z,99876.97
2023-04-26T02:20:23.932Z,99878.91
2023-04-26T02:22:50.954Z,99874.00
2023-04-26T02:25:17.986Z,99881.88
2023-04-26T02:27:57.895Z,99885.19
2023-04-26T02:30:26.604Z,99877.78
2023-04-26T02:32:54.375Z,99883.63
2023-04-26T02:35:22.052Z,99876.38
2023-04-26T02:37:49.420Z,99883.63
2023-04-26T02:40:16.772Z,99888.16
2023-04-26T02:42:43.736Z,99888.53
2023-04-26T02:45:11.684Z,99887.88
2023-04-26T02:47:40.406Z,99894.28
2023-04-26T02:50:09.570Z,99885.19
2023-04-26T02:52:37.818Z,99886.88
2023-04-26T02:55:07.024Z,99891.69
2023-04-26T02:57:34.300Z,99894.50
2023-04-26T03:00:01.247Z,99890.44
2023-04-26T03:02:28.829Z,99890.06
2023-04-26T03:04:58.095Z,99890.50
2023-04-26T03:07:27.131Z,99882.25
2023-04-26T03:09:58.896Z,99903.56
2023-04-26T03:12:32.130Z,99899.88
2023-04-26T03:15:01.094Z,99892.63
2023-04-26T03:17:29.272Z,99897.19
2023-04-26T03:19:59.543Z,99892.38
2023-04-26T03:22:28.524Z,99897.38
2023-04-26T03:24:55.470Z,99897.75
2023-04-26T03:27:22.833Z,99897.16
2023-04-26T03:29:49.790Z,99899.22
2023-04-26T03:32:16.818Z,99895.88
2023-04-26T03:34:44.339Z,99904.28
2023-04-26T03:37:12.892Z,99904.00
2023-04-26T03:39:40.311Z,99899.25
2023-04-26T03:42:08.149Z,99902.56
2023-04-26T03:44:35.641Z,99897.69
2023-04-26T03:47:02.526Z,99898.44
2023-04-26T03:49:29.622Z,99899.03
2023-04-26T03:51:56.505Z,99901.00
2023-04-26T03:54:25.119Z,99897.94
2023-04-26T03:56:52.633Z,99899.25
2023-04-26T03:59:20.486Z,99898.25
2023-04-26T04:01:48.157Z,99903.78
2023-04-26T04:04:15.378Z,99902.94
2023-04-26T04:06:43.030Z,99900.44
2023-04-26T04:09:09.932Z,99899.63
2023-04-26T04:11:38.317Z,99905.00
2023-04-26T04:14:05.625Z,99897.94
2023-04-26T04:16:33.052Z,99897.69
2023-04-26T04:19:00.276Z,99903.59
2023-04-26T04:21:28.015Z,99910.22
2023-04-26T04:23:55.572Z,99896.31
2023-04-26T04:26:22.934Z,99907.22
2023-04-26T04:28:51.448Z,99906.69
2023-04-26T04:31:19.044Z,99893.56
2023-04-26T04:33:46.103Z,99903.03
2023-04-26T04:36:13.632Z,99905.44
2023-04-26T04:38:40.461Z,99914.53
2023-04-26T04:41:08.424Z,99915.50
2023-04-26T04:43:35.951Z,99919.47
2023-04-26T04:46:04.944Z,99913.16
2023-04-26T04:48:32.190Z,99911.88
2023-04-26T04:50:59.916Z,99906.50
2023-04-26T04:53:26.962Z,99909.03
2023-04-26T04:55:54.378Z,99916.03
2023-04-26T04:58:21.930Z,99915.28
2023-04-26T05:00:49.036Z,99923.63
2023-04-26T05:03:29.912Z,99926.28
2023-04-26T05:05:58.076Z,99928.19
2023-04-26T05:08:27.428Z,99929.34
2023-04-26T05:10:57.547Z,99933.47
2023-04-26T05:13:24.743Z,99934.25
2023-04-26T05:15:51.819Z,99936.44
2023-04-26T05:18:19.397Z,99937.75
2023-04-26T05:20:47.854Z,99948.78
2023-04-26T05:23:15.403Z,99953.97
2023-04-26T05:25:42.591Z,99947.25
2023-04-26T05:28:28.066Z,99952.44
2023-04-26T05:31:08.815Z,99955.59
2023-04-26T05:33:53.165Z,99964.31
2023-04-26T05:36:30.654Z,99957.84
2023-04-26T05:38:57.675Z,99963.50
2023-04-26T05:41:24.728Z,99965.16
2023-04-26T05:43:52.111Z,99968.25
2023-04-26T05:46:20.159Z,99969.88
2023-04-26T05:48:47.172Z,99966.53
2023-04-26T05:51:14.042Z,99966.88
2023-04-26T05:53:42.406Z,99963.53
2023-04-26T05:56:09.692Z,99961.22
2023-04-26T05:58:37.366Z,99967.59
2023-04-26T06:01:05.069Z,99967.50
2023-04-26T06:03:32.217Z,99969.25
2023-04-26T06:05:59.584Z,99976.44
2023-04-26T06:08:27.560Z,99967.13
2023-04-26T06:10:56.402Z,99974.81
2023-04-26T06:13:23.297Z,99977.19
2023-04-26T06:15:50.214Z,99965.47
2023-04-26T06:18:17.056Z,99973.59
2023-04-26T06:20:43.906Z,99975.25
2023-04-26T06:23:10.809Z,99968.44
2023-04-26T06:25:38.109Z,99969.69
2023-04-26T06:28:06.381Z,99968.00
2023-04-26T06:30:34.156Z,99976.91
2023-04-26T06:33:01.301Z,99974.88
2023-04-26T06:35:30.615Z,99984.72
2023-04-26T06:37:57.863Z,99981.59
2023-04-26T06:40:25.992Z,99978.66
2023-04-26T06:42:53.121Z,99971.94
2023-04-26T06:45:47.433Z,99972.31
2023-04-26T06:48:14.426Z,99974.44
2023-04-26T06:50:41.548Z,99972.78
2023-04-26T06:53:08.649Z,99971.56
2023-04-26T06:55:40.124Z,99963.69
2023-04-26T06:58:12.150Z,99972.91
2023-04-26T07:00:39.612Z,99975.59
2023-04-26T07:03:08.313Z,99966.00
2023-04-26T07:05:44.216Z,99958.91
2023-04-26T07:08:11.513Z,99958.88
2023-04-26T07:10:47.987Z,99960.81
2023-04-26T07:13:16.515Z,99962.72
2023-04-26T07:15:43.710Z,99946.19
2023-04-26T07:18:12.283Z,99952.78
2023-04-26T07:20:40.547Z,99949.91
2023-04-26T07:23:07.651Z,99950.81
2023-04-26T07:25:34.581Z,99947.25
2023-04-26T07:28:04.132Z,99945.81
2023-04-26T07:30:32.667Z,99946.97
2023-04-26T07:32:59.924Z,99933.28
2023-04-26T07:35:28.604Z,99941.84
2023-04-26T07:38:14.422Z,99928.97
2023-04-26T07:41:22.643Z,99933.63
2023-04-26T07:43:53.732Z,99936.50
2023-04-26T07:46:21.715Z,99933.66
2023-04-26T07:48:49.081Z,99944.09
2023-04-26T07:51:17.475Z,99940.91
2023-04-26T07:53:44.636Z,99930.38
2023-04-26T07:56:11.635Z,99923.16
2023-04-26T07:59:11.472Z,99937.19
2023-04-26T08:01:39.532Z,99937.06
2023-04-26T08:04:08.309Z,99941.50
2023-04-26T08:06:37.016Z,99942.53
2023-04-26T08:09:04.431Z,99947.16
2023-04-26T08:11:31.738Z,99946.19
2023-04-26T08:13:58.721Z,99938.72
2023-04-26T08:16:25.699Z,99937.09
2023-04-26T08:18:52.661Z,99940.53
2023-04-26T08:21:21.555Z,99942.31
2023-04-26T08:23:50.816Z,99943.06
2023-04-26T08:26:17.984Z,99946.53
2023-04-26T08:28:44.951Z,99952.13
2023-04-26T08:31:12.882Z,99949.41
2023-04-26T08:33:41.710Z,99950.81
2023-04-26T08:36:09.387Z,99948.53
2023-04-26T08:38:36.764Z,99948.09
2023-04-26T08:41:06.666Z,99946.41
2023-04-26T08:43:36.853Z,99940.59
2023-04-26T08:46:12.655Z,99946.00
2023-04-26T08:48:41.607Z,99942.63
2023-04-26T08:51:14.088Z,99950.50
2023-04-26T08:53:43.145Z,99946.34
2023-04-26T08:56:13.448Z,99935.16
2023-04-26T08:58:41.022Z,99942.22
2023-04-26T09:01:10.490Z,99942.66
2023-04-26T09:04:28.045Z,99930.25
2023-04-26T09:07:01.113Z,99929.19
2023-04-26T09:09:59.697Z,99930.63
2023-04-26T09:12:28.321Z,99930.69
2023-04-26T09:14:55.737Z,99930.19
2023-04-26T09:17:28.299Z,99933.78
2023-04-26T09:19:56.541Z,99928.91
2023-04-26T09:22:31.987Z,99929.84
2023-04-26T09:25:01.375Z,99933.38
2023-04-26T09:27:39.166Z,99932.72
2023-04-26T09:30:12.103Z,99923.06
2023-04-26T09:32:53.723Z,99914.56
2023-04-26T09:35:25.753Z,99916.00
2023-04-26T09:38:20.111Z,99915.34
2023-04-26T09:40:52.357Z,99917.84
2023-04-26T09:43:23.055Z,99913.41
2023-04-26T09:45:52.620Z,99906.84
2023-04-26T09:48:21.993Z,99911.56
2023-04-26T09:50:51.329Z,99911.13
2023-04-26T09:53:29.284Z,99910.50
2023-04-26T09:56:05.978Z,99898.59
2023-04-26T09:58:36.554Z,99903.94
2023-04-26T10:01:04.967Z,99906.44
2023-04-26T10:03:35.943Z,99917.78
2023-04-26T10:06:04.278Z,99909.47
2023-04-26T10:08:35.757Z,99913.06
2023-04-26T10:11:15.927Z,99900.97
2023-04-26T10:13:46.146Z,99903.56
2023-04-26T10:16:13.259Z,99898.81
2023-04-26T10:19:04.428Z,99893.09
2023-04-26T10:21:39.193Z,99899.94
2023-04-26T10:24:08.335Z,99905.19
2023-04-26T10:27:07.116Z,99901.47
2023-04-26T10:30:10.114Z,99906.78
2023-04-26T10:33:17.388Z,99900.38
2023-04-26T10:36:15.074Z,99896.84
2023-04-26T10:39:25.045Z,99896.00
2023-04-26T10:42:22.468Z,99888.94
2023-04-26T10:44:51.696Z,99887.50
2023-04-26T10:47:32.066Z,99882.28
2023-04-26T10:50:06.422Z,99886.13
2023-04-26T10:52:35.273Z,99880.47
2023-04-26T10:55:04.268Z,99884.00
2023-04-26T10:57:51.735Z,99881.44
2023-04-26T11:04:53.865Z,99879.34
2023-04-26T11:07:39.979Z,99865.19
2023-04-26T11:10:09.429Z,99868.91
2023-04-26T11:12:36.927Z,99871.72
2023-04-26T11:15:05.393Z,99870.59
2023-04-26T11:17:37.225Z,99861.81
2023-04-26T11:20:10.886Z,99867.81
2023-04-26T11:22:40.361Z,99864.88
2023-04-26T11:25:45.018Z,99857.19
2023-04-26T11:28:13.126Z,99851.66
2023-04-26T11:30:41.195Z,99846.00
2023-04-26T11:33:17.554Z,99846.06
2023-04-26T11:35:46.511Z,99829.34
2023-04-26T11:38:44.033Z,99827.59
2023-04-26T11:41:11.626Z,99832.50
2023-04-26T11:43:40.158Z,99832.91
2023-04-26T11:46:37.586Z,99825.88
2023-04-26T11:49:08.554Z,99816.41
2023-04-26T11:51:37.595Z,99819.41
2023-04-26T11:54:04.938Z,99816.88
2023-04-26T11:56:32.062Z,99809.34
2023-04-26T11:58:59.836Z,99807.59
2023-04-26T12:02:08.084Z,99811.31
2023-04-26T12:04:35.408Z,99800.44
2023-04-26T12:07:05.190Z,99813.28
2023-04-26T12:09:33.129Z,99813.41
2023-04-26T12:12:02.567Z,99816.59
2023-04-26T12:14:33.242Z,99816.00
2023-04-26T12:17:01.228Z,99802.06
2023-04-26T12:19:28.593Z,99822.25
2023-04-26T12:25:54.084Z,99810.03
2023-04-26T12:28:21.784Z,99815.47
2023-04-26T12:30:49.687Z,99803.75
2023-04-26T12:33:17.884Z,99804.50
2023-04-26T12:35:50.633Z,99810.19
2023-04-26T12:38:18.773Z,99813.00
2023-04-26T12:40:48.831Z,99811.38
2023-04-26T12:43:15.779Z,99805.63
2023-04-26T12:45:42.854Z,99812.00
2023-04-26T12:48:10.241Z,99802.16
2023-04-26T12:50:37.281Z,99789.34
2023-04-26T12:53:05.538Z,99788.69
2023-04-26T12:55:33.140Z,99790.06
2023-04-26T12:58:02.206Z,99789.00
2023-04-26T13:00:30.213Z,99789.50
2023-04-26T13:02:57.593Z,99794.00
2023-04-26T13:05:24.645Z,99792.81
2023-04-26T13:07:52.276Z,99794.84
2023-04-26T13:10:19.271Z,99790.75
2023-04-26T13:12:46.435Z,99795.06
2023-04-26T13:15:17.351Z,99791.06
2023-04-26T13:17:44.791Z,99782.28
2023-04-26T13:20:14.116Z,99778.75
2023-04-26T13:22:42.188Z,99775.28
2023-04-26T13:26:27.534Z,99784.38
2023-04-26T13:28:55.715Z,99772.97
2023-04-26T13:31:24.513Z,99769.31
2023-04-26T13:33:51.712Z,99770.53
2023-04-26T13:36:18.625Z,99775.03
2023-04-26T13:38:46.192Z,99777.50
2023-04-26T13:41:14.086Z,99777.00
2023-04-26T13:43:40.955Z,99773.66
2023-04-26T13:46:08.090Z,99775.19
2023-04-26T13:48:36.470Z,99779.81
2023-04-26T13:51:06.882Z,99785.25
2023-04-26T13:53:34.902Z,99773.19
2023-04-26T13:56:02.008Z,99775.78
2023-04-26T13:58:29.009Z,99776.81
2023-04-26T14:00:56.625Z,99783.91
2023-04-26T14:03:25.109Z,99776.72
2023-04-26T14:05:54.639Z,99772.03
2023-04-26T14:08:22.984Z,99773.25
2023-04-26T14:10:49.928Z,99773.84
2023-04-26T14:13:17.563Z,99762.44
2023-04-26T14:15:44.471Z,99765.16
2023-04-26T14:18:11.557Z,99766.53
2023-04-26T14:20:38.588Z,99772.75
2023-04-26T14:23:06.822Z,99762.91
2023-04-26T14:25:34.161Z,99759.16
2023-04-26T14:28:01.392Z,99763.53
2023-04-26T14:30:29.319Z,99758.16
2023-04-26T14:32:56.407Z,99760.13
2023-04-26T14:35:23.450Z,99756.97
2023-04-26T14:37:50.521Z,99763.16
2023-04-26T14:40:19.153Z,99770.47
2023-04-26T14:42:46.363Z,99761.75
2023-04-26T14:45:14.203Z,99764.41
2023-04-26T14:47:41.659Z,99766.78
2023-04-26T14:50:10.093Z,99764.03
2023-04-26T14:52:37.494Z,99755.38
2023-04-26T14:55:05.695Z,99762.22
2023-04-26T14:57:34.048Z,99764.09
2023-04-26T15:00:00.961Z,99755.53
2023-04-26T15:02:27.937Z,99753.75
2023-04-26T15:04:55.007Z,99748.63
2023-04-26T15:07:31.212Z,99745.97
2023-04-26T15:09:59.569Z,99744.50
2023-04-26T15:12:26.472Z,99748.13
2023-04-26T15:14:54.795Z,99750.75
2023-04-26T15:17:21.822Z,99749.81
2023-04-26T15:19:48.693Z,99751.81
2023-04-26T15:22:18.457Z,99748.13
2023-04-26T15:24:45.347Z,99749.31
2023-04-26T15:27:12.298Z,99742.91
2023-04-26T15:29:39.289Z,99735.03
2023-04-26T15:32:09.182Z,99729.34
2023-04-26T15:34:41.329Z,99724.97
2023-04-26T15:37:08.578Z,99724.03
2023-04-26T15:39:35.558Z,99727.66
2023-04-26T15:42:02.574Z,99723.88
2023-04-26T15:44:30.168Z,99719.41
2023-04-26T15:46:57.418Z,99718.88
2023-04-26T15:49:26.000Z,99714.84
2023-04-26T15:51:53.000Z,99722.03
2023-04-26T15:54:20.099Z,99718.47
2023-04-26T15:56:47.179Z,99711.97
2023-04-26T15:59:14.425Z,99717.06
2023-04-26T16:01:41.647Z,99716.38
2023-04-26T16:04:08.815Z,99713.88
2023-04-26T16:06:37.233Z,99715.78
2023-04-26T16:09:06.458Z,99721.00
2023-04-26T16:16:22.952Z,99708.81
2023-04-26T16:18:50.711Z,99723.56
2023-04-26T16:21:17.693Z,99720.16
2023-04-26T16:27:30.323Z,99722.03
2023-04-26T16:29:57.264Z,99730.19
2023-04-26T16:32:24.344Z,99715.53
2023-04-26T16:34:52.150Z,99716.59
2023-04-26T16:37:19.204Z,99719.78
2023-04-26T16:39:46.096Z,99715.41
2023-04-26T16:42:13.064Z,99716.38
2023-04-26T16:44:41.523Z,99707.53
2023-04-26T16:47:08.379Z,99714.44
2023-04-26T16:49:35.234Z,99713.63
2023-04-26T16:56:14.970Z,99712.22
2023-04-26T16:58:42.172Z,99717.03
2023-04-26T17:01:10.782Z,99722.69
2023-04-26T17:03:38.413Z,99715.41
2023-04-26T17:06:08.581Z,99718.81
2023-04-26T17:08:36.368Z,99717.50
2023-04-26T17:11:06.155Z,99719.97
2023-04-26T17:13:35.358Z,99723.75
2023-04-26T17:16:02.378Z,99728.97
2023-04-26T17:18:31.695Z,99727.06
2023-04-26T17:20:58.884Z,99731.63
2023-04-26T17:23:25.908Z,99736.56
2023-04-26T17:25:55.136Z,99734.44
2023-04-26T17:28:22.859Z,99741.06
2023-04-26T17:30:49.832Z,99738.88
2023-04-26T17:33:36.757Z,99735.59
2023-04-26T17:36:05.127Z,99742.75
2023-04-26T17:38:32.840Z,99742.41
2023-04-26T17:41:00.245Z,99750.31
2023-04-26T17:43:28.217Z,99740.16
2023-04-26T17:45:56.237Z,99743.78
2023-04-26T17:48:24.089Z,99742.34
2023-04-26T17:50:52.845Z,99748.91
2023-04-26T17:53:20.104Z,99742.41
2023-04-26T17:55:47.572Z,99741.56
2023-04-26T17:58:14.435Z,99739.69
2023-04-26T18:00:42.485Z,99741.56
2023-04-26T18:03:17.313Z,99739.06
2023-04-26T18:05:45.231Z,99743.88
2023-04-26T18:08:14.297Z,99744.94
2023-04-26T18:10:47.157Z,99749.16
2023-04-26T18:13:15.621Z,99749.00
2023-04-26T18:15:42.546Z,99750.75
2023-04-26T18:18:10.480Z,99751.88
2023-04-26T18:20:38.106Z,99753.00
2023-04-26T18:23:05.168Z,99756.22
2023-04-26T18:25:33.683Z,99760.22
2023-04-26T18:28:00.565Z,99757.56
2023-04-26T18:30:27.710Z,99753.03
2023-04-26T18:32:54.851Z,99765.66
2023-04-26T18:35:21.749Z,99765.53
2023-04-26T18:37:48.771Z,99767.16
2023-04-26T18:40:15.914Z,99772.38
2023-04-26T18:42:44.767Z,99779.44
2023-04-26T18:45:13.155Z,99776.13
2023-04-26T18:47:40.281Z,99780.31
2023-04-26T18:50:08.733Z,99776.81
2023-04-26T18:52:35.657Z,99785.94
2023-04-26T18:55:02.677Z,99789.09
2023-04-26T18:57:32.551Z,99793.31
2023-04-26T19:00:01.398Z,99795.63
2023-04-26T19:02:28.602Z,99799.06
2023-04-26T19:04:55.997Z,99789.78
2023-04-26T19:07:23.624Z,99797.56
2023-04-26T19:09:54.337Z,99800.34
2023-04-26T19:12:22.362Z,99805.81
2023-04-26T19:14:49.223Z,99807.88
2023-04-26T19:17:17.683Z,99811.56
2023-04-26T19:19:44.588Z,99804.50
2023-04-26T19:22:12.672Z,99807.00
2023-04-26T19:24:39.635Z,99804.72
2023-04-26T19:27:06.563Z,99805.75
2023-04-26T19:29:33.439Z,99813.28
2023-04-26T19:32:00.518Z,99822.19
2023-04-26T19:34:28.752Z,99820.56
2023-04-26T19:36:55.561Z,99828.09
2023-04-26T19:39:23.855Z,99829.16
2023-04-26T19:41:50.916Z,99828.75
2023-04-26T19:44:18.107Z,99833.38
2023-04-26T19:46:45.186Z,99834.22
2023-04-26T19:49:12.549Z,99842.25
2023-04-26T19:51:40.925Z,99834.66
2023-04-26T19:54:08.361Z,99847.16
2023-04-26T19:56:35.242Z,99837.22
2023-04-26T19:59:02.201Z,99837.41
2023-04-26T20:01:29.226Z,99840.94
2023-04-26T20:03:56.680Z,99841.78
2023-04-26T20:06:23.686Z,99847.16
2023-04-26T20:08:53.018Z,99843.22
2023-04-26T20:11:20.162Z,99846.97
2023-04-26T20:13:47.107Z,99849.59
2023-04-26T20:16:14.621Z,99853.34
2023-04-26T20:18:41.658Z,99848.38
2023-04-26T20:21:09.074Z,99847.34
2023-04-26T20:23:36.125Z,99844.66
2023-04-26T20:26:04.313Z,99854.03
2023-04-26T20:28:31.239Z,99851.31
2023-04-26T20:30:58.050Z,99857.31
2023-04-26T20:33:24.992Z,99854.16
2023-04-26T20:35:52.090Z,99852.44
2023-04-26T20:38:19.541Z,99858.44
2023-04-26T20:40:47.169Z,99852.22
2023-04-26T20:43:15.420Z,99847.66
2023-04-26T20:45:42.388Z,99853.91
2023-04-26T20:48:09.900Z,99854.75
2023-04-26T20:50:37.359Z,99857.47
2023-04-26T20:53:04.567Z,99856.03
2023-04-26T20:55:31.425Z,99862.69
2023-04-26T20:57:58.389Z,99862.03
2023-04-26T21:00:27.839Z,99863.09
2023-04-26T21:02:54.848Z,99867.03
2023-04-26T21:05:22.294Z,99865.56
2023-04-26T21:07:49.308Z,99860.59
2023-04-26T21:10:16.417Z,99867.25
2023-04-26T21:12:43.544Z,99862.28
2023-04-26T21:15:11.652Z,99868.09
2023-04-26T21:17:40.262Z,99866.41
2023-04-26T21:20:08.272Z,99861.00
2023-04-26T21:22:35.337Z,99863.69
2023-04-26T21:25:02.609Z,99862.03
2023-04-26T21:27:29.693Z,99860.78
2023-04-26T21:29:57.203Z,99863.50
2023-04-26T21:32:24.214Z,99855.59
2023-04-26T21:34:52.528Z,99859.50
2023-04-26T21:37:19.770Z,99857.88
2023-04-26T21:39:46.698Z,99863.25
2023-04-26T21:42:13.672Z,99864.50
2023-04-26T21:44:40.830Z,99864.31
2023-04-26T21:51:45.027Z,99872.19
2023-04-26T21:54:12.809Z,99867.44
2023-04-26T21:56:39.815Z,99865.78
2023-04-26T21:59:06.796Z,99873.88
2023-04-26T22:01:34.008Z,99866.19
2023-04-26T22:04:01.044Z,99872.19
2023-04-26T22:06:28.082Z,99876.34
2023-04-26T22:08:57.104Z,99868.22
2023-04-26T22:11:24.222Z,99879.53
2023-04-26T22:13:51.703Z,99874.09
2023-04-26T22:16:18.828Z,99881.47
2023-04-26T22:18:45.863Z,99884.19
2023-04-26T22:21:12.759Z,99868.41
2023-04-26T22:23:39.611Z,99877.38
2023-04-26T22:26:07.933Z,99881.38
2023-04-26T22:28:34.893Z,99880.78
2023-04-26T22:31:02.007Z,99876.00
2023-04-26T22:33:28.904Z,99880.28
2023-04-26T22:35:56.085Z,99870.56
2023-04-26T22:38:23.147Z,99873.44
2023-04-26T22:40:50.355Z,99876.56
2023-04-26T22:43:18.845Z,99877.78
2023-04-26T22:45:46.515Z,99878.59
2023-04-26T22:48:13.492Z,99881.69
2023-04-26T22:50:40.435Z,99885.22
2023-04-26T22:53:07.324Z,99885.22
2023-04-26T22:55:34.293Z,99889.81
2023-04-26T22:58:01.171Z,99893.38
2023-04-26T23:00:29.507Z,99894.47
2023-04-26T23:02:56.531Z,99890.53
2023-04-26T23:05:23.528Z,99902.34
2023-04-26T23:07:50.450Z,99900.50
2023-04-26T23:10:17.396Z,99901.50
2023-04-26T23:12:45.098Z,99902.97
2023-04-26T23:15:12.551Z,99899.84
2023-04-26T23:17:41.425Z,99897.75
2023-04-26T23:20:09.794Z,99902.69
2023-04-26T23:22:36.732Z,99900.22
2023-04-26T23:25:03.841Z,99903.94
2023-04-26T23:27:30.783Z,99895.63
2023-04-26T23:29:57.867Z,99899.75
2023-04-26T23:32:25.017Z,99897.25
2023-04-26T23:34:53.257Z,99898.50
2023-04-26T23:37:20.184Z,99905.28
2023-04-26T23:39:46.961Z,99895.25
2023-04-26T23:42:13.818Z,99901.28
2023-04-26T23:44:40.719Z,99906.88
2023-04-26T23:47:07.564Z,99905.41
2023-04-26T23:49:34.557Z,99908.09
2023-04-26T23:52:02.870Z,99903.72
2023-04-26T23:54:29.809Z,99906.63
2023-04-26T23:56:56.729Z,99909.75
2023-04-26T23:59:23.724Z,99902.88
